Time;durP1;ratioP1;P1;durP2;ratioP2;P2;SDS_P1;SDS_P2;PMS_P1;PMS_P2;Temp;Humidity;BMP_temperature;BMP_pressure;BME280_temperature;BME280_humidity;BME280_pressure;Samples;Min_cycle;Max_cycle;Signal;HPM_P1;HPM_P2
2022/01/14 00:02:16;;;;;;;116.47;41.53;;;;;;;0.71;100.00;99631.08;1616646;87;21089;-71
2022/01/14 00:04:42;;;;;;;140.97;44.70;;;;;;;0.74;100.00;99634.97;1621550;87;21592;-71
2022/01/14 00:07:09;;;;;;;116.20;37.48;;;;;;;0.76;100.00;99629.31;1607329;89;21085;-71
2022/01/14 00:09:37;;;;;;;76.97;28.45;;;;;;;0.74;100.00;99624.16;1652863;86;21077;-70
2022/01/14 00:12:12;;;;;;;245.07;75.78;;;;;;;0.75;100.00;99618.09;1618926;88;21906;-71
2022/01/14 00:14:39;;;;;;;59.47;21.20;;;;;;;0.76;100.00;99630.62;1618381;88;21046;-70
2022/01/14 00:17:10;;;;;;;143.85;47.33;;;;;;;0.75;100.00;99613.36;1619046;88;21089;-69
2022/01/14 00:19:37;;;;;;;86.42;33.15;;;;;;;0.74;100.00;99607.77;1637115;87;21109;-69
2022/01/14 00:22:12;;;;;;;69.53;24.80;;;;;;;0.75;100.00;99614.66;1645545;87;21061;-69
2022/01/14 00:33:05;;;;;;;121.17;42.00;;;;;;;0.77;100.00;99599.52;1680592;85;21041;-70
2022/01/14 00:35:28;;;;;;;258.82;84.75;;;;;;;0.79;100.00;99599.52;1680500;85;21113;-71
2022/01/14 00:37:55;;;;;;;133.55;43.87;;;;;;;0.79;100.00;99590.44;1678432;85;21159;-69
2022/01/14 00:40:22;;;;;;;43.92;15.80;;;;;;;0.78;100.00;99597.77;1680838;85;21509;-71
2022/01/14 00:42:49;;;;;;;192.10;64.60;;;;;;;0.80;100.00;99598.63;1680488;85;21053;-70
2022/01/14 00:45:15;;;;;;;235.17;78.17;;;;;;;0.82;100.00;99603.38;1645191;87;21129;-72
2022/01/14 00:47:42;;;;;;;117.00;40.98;;;;;;;0.85;100.00;99595.57;1636317;87;21110;-71
2022/01/14 00:50:11;;;;;;;99.52;35.83;;;;;;;0.89;100.00;99593.39;1602524;89;21315;-71
2022/01/14 00:52:39;;;;;;;62.80;21.90;;;;;;;0.89;100.00;99588.20;1602454;89;21097;-68
2022/01/14 00:55:09;;;;;;;70.42;26.15;;;;;;;0.89;100.00;99588.20;1680470;85;21586;-73
2022/01/14 01:00:24;;;;;;;51.88;18.95;;;;;;;0.91;100.00;99574.80;1636112;87;21085;-72
2022/01/14 01:02:50;;;;;;;8.20;4.28;;;;;;;0.92;100.00;99576.54;1602288;89;21165;-70
2022/01/14 01:05:18;;;;;;;37.98;15.15;;;;;;;0.94;100.00;99560.95;1645225;87;21061;-71
2022/01/14 01:07:55;;;;;;;218.22;73.40;;;;;;;0.95;100.00;99558.80;1636153;87;21117;-70
2022/01/14 01:10:17;;;;;;;209.98;70.72;;;;;;;0.92;100.00;99549.31;1635097;87;21088;-70
2022/01/14 01:15:17;;;;;;;184.97;58.65;;;;;;;0.92;100.00;99532.47;1636477;87;21231;-70
2022/01/14 01:17:44;;;;;;;191.82;64.22;;;;;;;0.95;100.00;99522.06;1602552;89;21100;-69
2022/01/14 01:20:13;;;;;;;263.30;88.25;;;;;;;0.96;100.00;99520.32;1602634;89;21532;-69
2022/01/14 01:22:40;;;;;;;218.78;69.45;;;;;;;0.96;100.00;99505.62;1602709;89;21102;-68
2022/01/14 01:25:11;;;;;;;104.83;32.73;;;;;;;0.95;100.00;99501.32;1643043;86;21104;-68
2022/01/14 01:27:40;;;;;;;140.77;46.48;;;;;;;0.96;100.00;99486.17;1656834;86;21814;-68
2022/01/14 01:32:54;;;;;;;52.45;21.25;;;;;;;1.01;100.00;99475.34;1657037;86;21089;-69
2022/01/14 01:35:21;;;;;;;20.65;9.18;;;;;;;1.02;100.00;99471.02;1645530;86;21160;-68
2022/01/14 01:37:47;;;;;;;35.00;11.78;;;;;;;1.03;100.00;99463.64;1662473;86;21647;-68
2022/01/14 01:40:14;;;;;;;40.58;15.15;;;;;;;1.03;100.00;99433.83;1662537;86;21143;-68
2022/01/14 01:42:44;;;;;;;70.22;21.95;;;;;;;1.04;100.00;99416.97;1662090;86;21076;-69
2022/01/14 01:45:15;;;;;;;160.00;49.67;;;;;;;1.04;100.00;99403.16;1662570;86;21088;-69
2022/01/14 01:47:44;;;;;;;170.43;55.88;;;;;;;1.04;100.00;99396.22;1662320;86;21072;-72
2022/01/14 01:50:17;;;;;;;130.50;45.23;;;;;;;1.07;100.00;99388.00;1662264;86;21088;-68
2022/01/14 01:52:44;;;;;;;113.08;37.93;;;;;;;1.04;100.00;99381.96;1662311;86;21116;-71
2022/01/14 01:55:11;;;;;;;249.52;79.00;;;;;;;1.05;100.00;99372.00;1662211;86;21030;-71
2022/01/14 01:57:38;;;;;;;131.65;43.85;;;;;;;1.05;100.00;99365.52;1662265;86;21526;-69
2022/01/14 02:00:08;;;;;;;103.32;33.92;;;;;;;1.08;100.00;99365.06;1659834;84;21581;-70
2022/01/14 02:02:36;;;;;;;146.53;50.35;;;;;;;1.05;100.00;99368.11;1656061;86;21554;-72
2022/01/14 02:05:04;;;;;;;91.00;31.40;;;;;;;1.08;100.00;99366.36;1656853;86;21128;-70
2022/01/14 02:07:33;;;;;;;66.77;24.82;;;;;;;1.08;100.00;99372.40;1656795;86;21134;-70
2022/01/14 02:10:00;;;;;;;59.93;22.58;;;;;;;1.11;100.00;99374.13;1656248;86;21069;-71
2022/01/14 02:12:35;;;;;;;42.17;14.93;;;;;;;1.13;100.00;99371.94;1658482;86;21080;-72
2022/01/14 02:15:08;;;;;;;42.40;17.05;;;;;;;1.15;100.00;99374.08;1692844;84;21148;-71
2022/01/14 02:17:32;;;;;;;71.07;26.48;;;;;;;1.20;100.00;99368.84;1655341;86;21117;-69
2022/01/14 02:22:54;;;;;;;186.00;61.60;;;;;;;1.25;100.00;99369.64;1657348;85;21066;-68
2022/01/14 02:25:29;;;;;;;179.00;57.48;;;;;;;1.29;100.00;99373.92;1691075;83;21570;-69
2022/01/14 02:28:01;;;;;;;61.90;19.73;;;;;;;1.30;100.00;99369.14;1690602;84;21117;-70
2022/01/14 02:30:29;;;;;;;50.43;18.37;;;;;;;1.32;100.00;99369.13;1658346;85;21187;-69
2022/01/14 02:32:58;;;;;;;87.50;30.52;;;;;;;1.34;100.00;99366.09;1690746;84;21132;-67
2022/01/14 02:35:24;;;;;;;104.30;38.50;;;;;;;1.35;100.00;99363.45;1657251;86;21093;-70
2022/01/14 02:37:51;;;;;;;81.57;28.85;;;;;;;1.36;100.00;99353.52;1650373;86;21092;-70
2022/01/14 02:40:18;;;;;;;61.05;22.00;;;;;;;1.39;100.00;99342.23;1625267;88;21141;-70
2022/01/14 02:42:47;;;;;;;60.58;21.07;;;;;;;1.42;100.00;99337.00;1690785;84;21090;-70
2022/01/14 02:45:14;;;;;;;113.72;38.65;;;;;;;1.40;100.00;99330.97;1656984;86;21597;-70
2022/01/14 02:47:42;;;;;;;43.35;15.18;;;;;;;1.39;100.00;99334.01;1650656;86;21108;-71
2022/01/14 02:50:14;;;;;;;23.73;8.73;;;;;;;1.40;100.00;99330.97;1624762;88;21158;-70
2022/01/14 02:55:20;;;;;;;174.95;54.88;;;;;;;1.41;100.00;99327.06;1690768;84;21206;-69
2022/01/14 02:57:52;;;;;;;190.07;56.45;;;;;;;1.45;100.00;99317.08;1657028;86;21065;-70
2022/01/14 03:00:25;;;;;;;233.30;77.97;;;;;;;1.44;100.00;99308.00;1691055;84;21104;-69
2022/01/14 03:02:51;;;;;;;239.30;71.92;;;;;;;1.43;100.00;99299.81;1690612;84;21057;-69
2022/01/14 03:05:19;;;;;;;106.92;35.80;;;;;;;1.44;100.00;99290.69;1657410;86;21152;-69
2022/01/14 03:07:47;;;;;;;206.80;65.25;;;;;;;1.44;100.00;99290.69;1690551;84;21172;-69
2022/01/14 03:10:16;;;;;;;79.50;29.15;;;;;;;1.43;100.00;99274.72;1657595;86;21083;-69
2022/01/14 03:12:43;;;;;;;85.42;29.95;;;;;;;1.41;100.00;99255.72;1657176;86;21038;-71
2022/01/14 03:15:11;;;;;;;88.22;30.52;;;;;;;1.41;100.00;99255.72;1657120;86;22021;-68
2022/01/14 03:17:39;;;;;;;114.90;39.73;;;;;;;1.41;100.00;99253.13;1691185;84;22173;-67
2022/01/14 03:20:11;;;;;;;37.83;14.85;;;;;;;1.43;100.00;99244.03;1690599;84;21128;-69
2022/01/14 03:22:42;;;;;;;45.43;17.15;;;;;;;1.44;100.00;99241.39;1690874;84;21300;-72
2022/01/14 03:27:54;;;;;;;156.72;48.58;;;;;;;1.44;100.00;99224.98;1690937;84;21513;-68
2022/01/14 03:30:20;;;;;;;99.77;30.92;;;;;;;1.48;100.00;99221.47;1657230;86;21030;-68
2022/01/14 03:32:50;;;;;;;67.95;22.98;;;;;;;1.47;100.00;99218.44;1657426;86;21868;-69
2022/01/14 03:35:16;;;;;;;105.75;35.80;;;;;;;1.50;100.00;99203.29;1690839;84;21061;-67
2022/01/14 03:37:43;;;;;;;133.43;41.63;;;;;;;1.49;100.00;99196.37;1657037;86;21092;-69
2022/01/14 03:40:12;;;;;;;240.80;71.53;;;;;;;1.50;100.00;99190.31;1653786;84;21538;-68
2022/01/14 03:42:38;;;;;;;166.35;51.05;;;;;;;1.49;100.00;99184.69;1688149;84;21513;-71
2022/01/14 03:45:07;;;;;;;129.23;36.65;;;;;;;1.50;100.00;99174.75;1664438;84;21121;-67
2022/01/14 03:47:33;;;;;;;43.17;14.78;;;;;;;1.50;100.00;99161.77;1713143;83;21109;-67
2022/01/14 03:49:59;;;;;;;34.08;13.93;;;;;;;1.49;100.00;99157.00;1712852;83;21061;-66
2022/01/14 03:52:26;;;;;;;109.67;39.67;;;;;;;1.49;100.00;99158.30;1712938;83;21041;-67
2022/01/14 03:54:52;;;;;;;30.88;11.00;;;;;;;1.52;100.00;99162.58;1712876;83;21033;-67
2022/01/14 03:57:19;;;;;;;24.18;9.75;;;;;;;1.54;100.00;99160.41;1712990;83;21235;-66
2022/01/14 03:59:50;;;;;;;33.15;12.33;;;;;;;1.56;100.00;99150.83;1712909;83;21197;-66
2022/01/14 04:02:14;;;;;;;82.57;28.20;;;;;;;1.58;100.00;99152.95;1712627;83;21021;-66
2022/01/14 04:04:41;;;;;;;28.77;9.83;;;;;;;1.62;100.00;99155.08;1703062;83;21143;-66
2022/01/14 04:07:07;;;;;;;35.98;12.55;;;;;;;1.62;100.00;99156.38;1690670;84;21080;-68
2022/01/14 04:09:36;;;;;;;34.80;13.13;;;;;;;1.64;100.00;99149.42;1690520;84;21989;-68
2022/01/14 04:12:07;;;;;;;78.25;26.33;;;;;;;1.64;100.00;99152.02;1690284;84;21634;-67
2022/01/14 04:17:03;;;;;;;156.72;49.30;;;;;;;1.67;100.00;99131.20;1678231;85;21711;-67
2022/01/14 04:19:30;;;;;;;108.17;36.45;;;;;;;1.69;100.00;99116.45;1678366;85;21085;-68
2022/01/14 04:21:57;;;;;;;150.82;47.38;;;;;;;1.69;100.00;99116.45;1678035;85;21141;-69
2022/01/14 04:24:23;;;;;;;180.37;53.10;;;;;;;1.68;100.00;99125.14;1678449;85;21567;-68
2022/01/14 04:26:50;;;;;;;103.42;35.13;;;;;;;1.68;100.00;99125.98;1674345;84;21113;-67
2022/01/14 04:29:16;;;;;;;251.32;86.90;;;;;;;1.69;100.00;99126.84;1681525;85;21092;-65
2022/01/14 04:31:42;;;;;;;149.35;52.15;;;;;;;1.70;100.00;99118.16;1682078;85;21072;-68
2022/01/14 04:34:09;;;;;;;160.45;54.70;;;;;;;1.72;100.00;99120.73;1678327;85;21544;-69
2022/01/14 04:36:35;;;;;;;63.85;21.45;;;;;;;1.72;100.00;99117.69;1646369;86;21549;-68
2022/01/14 04:39:03;;;;;;;82.85;28.17;;;;;;;1.73;100.00;99118.13;1681481;85;21096;-68
2022/01/14 04:41:29;;;;;;;86.97;31.45;;;;;;;1.74;100.00;99117.67;1681369;85;21585;-63
2022/01/14 04:43:55;;;;;;;52.15;19.07;;;;;;;1.74;100.00;99105.55;1646220;86;21553;-63
2022/01/14 04:48:51;;;;;;;14.73;7.03;;;;;;;1.77;100.00;99121.09;1645863;86;21098;-63
2022/01/14 04:51:20;;;;;;;43.38;15.65;;;;;;;1.77;100.00;99112.00;1674111;85;21132;-64
2022/01/14 04:53:45;;;;;;;27.25;10.80;;;;;;;1.74;100.00;99111.19;1661303;86;21604;-63
2022/01/14 04:56:13;;;;;;;58.85;18.95;;;;;;;1.75;100.00;99107.69;1672999;85;22118;-63
2022/01/14 04:58:39;;;;;;;38.30;14.98;;;;;;;1.75;100.00;99107.69;1682111;85;21139;-64
2022/01/14 05:01:06;;;;;;;131.27;42.13;;;;;;;1.75;100.00;99099.48;1681602;85;21403;-64
2022/01/14 05:03:33;;;;;;;189.70;62.30;;;;;;;1.78;100.00;99098.12;1681440;85;21068;-66
2022/01/14 05:06:01;;;;;;;210.28;63.63;;;;;;;1.76;100.00;99080.87;1673521;85;21181;-66
2022/01/14 05:08:36;;;;;;;249.70;81.95;;;;;;;1.76;100.00;99076.52;1666321;85;21141;-66
2022/01/14 05:13:24;;;;;;;164.93;53.55;;;;;;;1.74;100.00;99066.61;1671298;85;21065;-65
2022/01/14 05:15:53;;;;;;;403.88;136.00;;;;;;;1.74;100.00;99076.99;1668283;84;21072;-65
2022/01/14 05:18:23;;;;;;;195.03;60.58;;;;;;;1.75;100.00;99070.94;1646094;87;21066;-64
2022/01/14 05:20:51;;;;;;;102.85;34.70;;;;;;;1.75;100.00;99070.94;1681856;85;21100;-64
2022/01/14 05:23:17;;;;;;;15.72;6.35;;;;;;;1.74;100.00;99057.52;1646218;87;23262;-64
2022/01/14 05:25:44;;;;;;;9.45;4.78;;;;;;;1.73;100.00;99054.53;1681428;84;21030;-64
2022/01/14 05:28:10;;;;;;;36.65;12.88;;;;;;;1.67;100.00;99041.20;1663170;85;21041;-64
2022/01/14 05:30:37;;;;;;;10.05;3.98;;;;;;;1.64;100.00;99035.23;1656696;85;21131;-63
2022/01/14 05:33:04;;;;;;;12.95;6.17;;;;;;;1.64;100.00;99035.23;1659479;86;21038;-64
2022/01/14 05:35:31;;;;;;;6.47;3.47;;;;;;;1.65;100.00;99033.88;1659517;86;22008;-63
2022/01/14 05:37:57;;;;;;;6.87;3.98;;;;;;;1.63;100.00;99023.13;1659460;86;21089;-63
2022/01/14 05:40:26;;;;;;;5.95;3.05;;;;;;;1.60;100.00;99015.41;1659416;86;21105;-64
2022/01/14 05:42:52;;;;;;;4.75;3.05;;;;;;;1.62;100.00;99017.53;1659564;86;21098;-63
2022/01/14 05:45:19;;;;;;;11.22;5.80;;;;;;;1.60;100.00;99019.30;1659727;86;21096;-63
2022/01/14 05:47:45;;;;;;;117.72;37.17;;;;;;;1.60;100.00;99025.78;1659738;86;21182;-63
2022/01/14 05:50:15;;;;;;;117.05;37.55;;;;;;;1.60;100.00;99018.00;1672042;85;21034;-63
2022/01/14 05:52:42;;;;;;;153.47;48.83;;;;;;;1.63;100.00;99011.44;1645498;86;21050;-64
2022/01/14 05:55:12;;;;;;;139.72;43.15;;;;;;;1.63;100.00;99011.44;1680560;85;21101;-63
2022/01/14 05:57:39;;;;;;;102.35;33.50;;;;;;;1.65;100.00;98996.25;1645021;86;21137;-63
2022/01/14 06:00:11;;;;;;;388.37;142.15;;;;;;;1.66;100.00;99004.47;1638264;87;21141;-63
2022/01/14 06:02:39;;;;;;;81.57;23.67;;;;;;;1.67;100.00;99012.66;1636345;86;21117;-64
2022/01/14 06:05:07;;;;;;;140.92;48.87;;;;;;;1.66;100.00;98991.94;1641288;86;21577;-63
2022/01/14 06:07:34;;;;;;;95.30;32.98;;;;;;;1.68;100.00;98992.77;1624231;86;21042;-64
2022/01/14 06:10:00;;;;;;;51.98;20.62;;;;;;;1.68;100.00;98992.77;1625428;87;21050;-65
2022/01/14 06:12:27;;;;;;;69.87;22.87;;;;;;;1.71;100.00;98987.52;1654509;85;22168;-64
2022/01/14 06:14:53;;;;;;;36.30;14.40;;;;;;;1.72;100.00;98972.34;1656374;85;21645;-64
2022/01/14 06:17:22;;;;;;;59.15;23.40;;;;;;;1.72;100.00;98972.34;1656417;85;21073;-63
2022/01/14 06:19:49;;;;;;;28.47;12.10;;;;;;;1.74;100.00;98967.97;1660811;85;21123;-64
2022/01/14 06:22:17;;;;;;;33.28;13.70;;;;;;;1.75;100.00;98968.41;1668601;85;21085;-63
2022/01/14 06:26:17;;;;;;;47.00;18.27;;;;;;;1.86;100.00;98960.38;1781687;79;22652;-64
2022/01/14 06:28:44;;;;;;;72.35;26.00;;;;;;;1.81;100.00;98964.81;1750235;80;21073;-62
2022/01/14 06:31:11;;;;;;;105.63;38.02;;;;;;;1.82;100.00;98954.41;1746991;81;23036;-63
2022/01/14 06:33:38;;;;;;;35.15;13.32;;;;;;;1.84;100.00;98937.06;1678696;83;21072;-64
2022/01/14 06:36:04;;;;;;;35.20;12.73;;;;;;;1.86;100.00;98935.30;1685879;84;21077;-64
2022/01/14 06:38:32;;;;;;;18.65;8.28;;;;;;;1.86;100.00;98931.40;1686691;84;21116;-63
2022/01/14 06:40:59;;;;;;;13.95;7.45;;;;;;;1.84;100.00;98912.41;1665999;85;21123;-63
2022/01/14 06:43:25;;;;;;;37.05;15.88;;;;;;;1.87;100.00;98917.52;1651027;85;22180;-63
2022/01/14 06:45:52;;;;;;;26.15;10.88;;;;;;;1.93;100.00;98897.05;1677297;83;21070;-64
2022/01/14 06:48:18;;;;;;;51.20;18.82;;;;;;;1.93;100.00;98897.05;1683169;84;21028;-64
2022/01/14 06:50:45;;;;;;;78.00;27.02;;;;;;;1.95;100.00;98894.42;1684912;84;21158;-65
2022/01/14 06:53:14;;;;;;;76.87;26.17;;;;;;;1.99;100.00;98867.52;1686948;84;21080;-64
2022/01/14 06:55:40;;;;;;;117.93;38.95;;;;;;;1.99;100.00;98867.52;1683468;83;21175;-64
2022/01/14 06:58:07;;;;;;;72.85;25.12;;;;;;;1.99;100.00;98877.90;1690650;84;21612;-64
2022/01/14 07:00:34;;;;;;;90.28;32.15;;;;;;;2.02;100.00;98866.14;1684051;84;21064;-65
2022/01/14 07:03:01;;;;;;;76.05;24.40;;;;;;;2.02;100.00;98858.34;1673931;84;21100;-65
2022/01/14 07:05:28;;;;;;;54.58;18.50;;;;;;;2.02;100.00;98849.25;1691860;84;21064;-64
2022/01/14 07:07:55;;;;;;;58.58;20.95;;;;;;;2.02;100.00;98837.57;1682937;84;21324;-64
2022/01/14 07:10:24;;;;;;;41.98;15.55;;;;;;;2.04;100.00;98829.30;1667753;85;21078;-64
2022/01/14 07:12:50;;;;;;;47.25;17.73;;;;;;;2.05;100.00;98825.84;1667086;84;21105;-63
2022/01/14 07:15:20;;;;;;;41.25;16.32;;;;;;;2.08;100.00;98833.55;1664447;85;21030;-64
2022/01/14 07:17:47;;;;;;;32.80;14.93;;;;;;;2.10;100.00;98833.06;1683078;83;21102;-66
2022/01/14 07:20:15;;;;;;;48.42;16.87;;;;;;;2.12;100.00;98809.22;1683412;84;21906;-64
2022/01/14 07:22:46;;;;;;;39.75;18.02;;;;;;;2.12;100.00;98809.22;1675047;84;21138;-65
2022/01/14 07:25:13;;;;;;;17.85;8.65;;;;;;;2.16;100.00;98807.38;1649367;85;21116;-65
2022/01/14 07:27:39;;;;;;;30.48;13.20;;;;;;;2.15;100.00;98810.43;1624861;87;21604;-63
2022/01/14 07:30:07;;;;;;;25.85;8.63;;;;;;;2.18;100.00;98802.55;1686926;83;21742;-64
2022/01/14 07:32:34;;;;;;;39.60;14.78;;;;;;;2.19;100.00;98803.44;1686230;83;21115;-65
2022/01/14 07:35:02;;;;;;;34.10;14.47;;;;;;;2.20;100.00;98803.38;1689761;83;21072;-64
2022/01/14 07:37:28;;;;;;;69.40;26.00;;;;;;;2.22;100.00;98805.49;1686295;83;21103;-64
2022/01/14 07:39:55;;;;;;;92.22;31.10;;;;;;;2.22;100.00;98787.30;1692026;83;21058;-64
2022/01/14 07:42:21;;;;;;;90.03;29.75;;;;;;;2.27;100.00;98790.64;1690774;83;21547;-64
2022/01/14 07:44:48;;;;;;;131.40;43.40;;;;;;;2.30;100.00;98793.18;1689156;83;22536;-64
2022/01/14 07:47:15;;;;;;;78.62;27.20;;;;;;;2.37;100.00;98817.27;1693880;83;21074;-65
2022/01/14 07:49:42;;;;;;;76.30;30.05;;;;;;;2.38;100.00;98808.57;1698519;83;21108;-65
2022/01/14 07:52:09;;;;;;;113.77;40.78;;;;;;;2.39;100.00;98796.42;1691127;83;21667;-62
2022/01/14 07:54:36;;;;;;;113.57;40.40;;;;;;;2.42;100.00;98808.06;1693473;83;21105;-64
2022/01/14 07:57:04;;;;;;;64.90;23.50;;;;;;;2.43;100.00;98785.06;1682362;83;21132;-64
2022/01/14 07:59:32;;;;;;;44.60;15.28;;;;;;;2.44;100.00;98801.05;1681849;84;21832;-64
2022/01/14 08:01:59;;;;;;;91.53;30.45;;;;;;;2.46;100.00;98779.78;1661624;85;21053;-63
2022/01/14 08:04:26;;;;;;;60.45;21.97;;;;;;;2.50;100.00;98771.02;1665170;84;21101;-65
2022/01/14 08:06:57;;;;;;;27.07;11.22;;;;;;;2.53;100.00;98769.62;1683866;83;21444;-63
2022/01/14 08:09:23;;;;;;;52.03;19.73;;;;;;;2.52;100.00;98744.09;1679606;84;21131;-63
2022/01/14 08:11:49;;;;;;;22.70;9.63;;;;;;;2.57;100.00;98734.03;1688163;83;21150;-62
2022/01/14 08:14:17;;;;;;;13.78;7.30;;;;;;;2.59;100.00;98740.05;1696708;83;21618;-63
2022/01/14 08:16:44;;;;;;;21.20;8.83;;;;;;;2.58;100.00;98714.51;1687995;85;21064;-63
2022/01/14 08:19:10;;;;;;;22.20;10.03;;;;;;;2.63;100.00;98724.33;1687998;84;21052;-63
2022/01/14 08:21:37;;;;;;;28.30;10.98;;;;;;;2.66;100.00;98703.44;1679876;83;21153;-62
2022/01/14 08:24:03;;;;;;;64.77;24.90;;;;;;;2.71;100.00;98713.28;1658398;86;21049;-63
2022/01/14 08:26:31;;;;;;;79.87;29.23;;;;;;;2.77;100.00;98711.40;1683671;82;21556;-63
2022/01/14 08:28:58;;;;;;;71.65;26.35;;;;;;;2.80;100.00;98724.30;1718180;82;21052;-64
2022/01/14 08:31:24;;;;;;;62.93;23.38;;;;;;;2.86;100.00;98727.59;1740282;82;21140;-63
2022/01/14 08:33:51;;;;;;;81.42;27.20;;;;;;;2.90;100.00;98717.97;1733812;82;21110;-65
2022/01/14 08:36:18;;;;;;;86.72;33.48;;;;;;;2.92;100.00;98720.05;1717994;82;21096;-65
2022/01/14 08:38:44;;;;;;;92.05;31.50;;;;;;;2.95;100.00;98695.27;1725055;82;21095;-65
2022/01/14 08:41:11;;;;;;;53.23;19.62;;;;;;;2.97;100.00;98703.89;1681834;83;21680;-64
2022/01/14 08:43:38;;;;;;;84.92;31.70;;;;;;;3.03;100.00;98695.89;1679166;84;21080;-64
2022/01/14 08:46:04;;;;;;;75.45;25.62;;;;;;;3.08;100.00;98701.83;1657218;86;21077;-64
2022/01/14 08:48:31;;;;;;;66.62;24.67;;;;;;;3.10;100.00;98692.66;1736007;82;21043;-63
2022/01/14 08:50:57;;;;;;;51.73;19.35;;;;;;;3.11;100.00;98691.32;1716702;82;21746;-63
2022/01/14 08:53:24;;;;;;;39.88;17.00;;;;;;;3.14;100.00;98670.41;1717114;82;21048;-64
2022/01/14 08:55:54;;;;;;;23.52;11.57;;;;;;;3.15;100.00;98676.45;1718330;82;21061;-63
2022/01/14 08:58:20;;;;;;;35.30;14.38;;;;;;;3.18;100.00;98675.55;1723463;82;21117;-64
2022/01/14 09:00:49;;;;;;;28.92;12.30;;;;;;;3.22;100.00;98685.81;1714569;82;21668;-65
2022/01/14 09:03:15;;;;;;;15.13;6.25;;;;;;;3.25;100.00;98677.05;1716474;82;21044;-63
2022/01/14 09:05:42;;;;;;;22.13;9.30;;;;;;;3.22;100.00;98668.02;1714749;82;21517;-64
2022/01/14 09:08:09;;;;;;;20.52;9.10;;;;;;;3.26;100.00;98676.14;1714768;82;21179;-64
2022/01/14 09:10:36;;;;;;;16.23;6.37;;;;;;;3.26;100.00;98667.03;1717574;82;22144;-64
2022/01/14 09:13:02;;;;;;;27.70;11.33;;;;;;;3.27;100.00;98664.86;1717589;82;21065;-63
2022/01/14 09:15:29;;;;;;;75.90;28.52;;;;;;;3.29;100.00;98656.52;1719907;82;21730;-64
2022/01/14 09:17:55;;;;;;;19.40;8.08;;;;;;;3.31;100.00;98656.03;1720994;81;21053;-64
2022/01/14 09:20:22;;;;;;;24.27;11.78;;;;;;;3.33;100.00;98657.68;1721612;82;21045;-65
2022/01/14 09:22:51;;;;;;;17.15;7.78;;;;;;;3.33;100.00;98649.03;1726645;81;21942;-64
2022/01/14 09:25:18;;;;;;;44.23;19.12;;;;;;;3.35;100.00;98655.88;1679234;83;21139;-64
2022/01/14 09:27:47;;;;;;;43.35;17.15;;;;;;;3.38;100.00;98650.19;1690480;83;21080;-65
2022/01/14 09:30:13;;;;;;;25.30;11.30;;;;;;;3.40;100.00;98638.83;1684372;84;21052;-65
2022/01/14 09:32:40;;;;;;;37.93;15.75;;;;;;;3.43;100.00;98628.34;1693567;83;21061;-65
2022/01/14 09:35:07;;;;;;;26.37;11.75;;;;;;;3.41;100.00;98610.62;1689550;83;21043;-65
2022/01/14 09:37:35;;;;;;;22.50;8.90;;;;;;;3.41;100.00;98624.09;1679828;83;21577;-65
2022/01/14 09:40:02;;;;;;;32.10;12.23;;;;;;;3.40;100.00;98602.39;1683897;83;22358;-63
2022/01/14 09:42:30;;;;;;;9.20;4.35;;;;;;;3.41;100.00;98598.91;1692463;83;21073;-65
2022/01/14 09:44:57;;;;;;;10.43;4.78;;;;;;;3.40;100.00;98585.48;1684381;83;21101;-64
2022/01/14 09:47:24;;;;;;;7.67;3.67;;;;;;;3.39;100.00;98589.45;1695292;83;21493;-64
2022/01/14 09:49:51;;;;;;;14.30;6.40;;;;;;;3.36;100.00;98586.50;1687267;83;21059;-64
2022/01/14 09:52:17;;;;;;;9.43;4.55;;;;;;;3.38;100.00;98595.54;1681785;83;21823;-64
2022/01/14 09:54:45;;;;;;;8.23;4.80;;;;;;;3.36;100.00;98572.19;1684837;83;21656;-64
2022/01/14 09:57:17;;;;;;;9.78;4.85;;;;;;;3.38;100.00;98574.27;1693982;83;21077;-64
2022/01/14 09:59:44;;;;;;;13.93;6.35;;;;;;;3.39;100.00;98564.27;1689590;83;21160;-63
2022/01/14 10:02:34;;;;;;;15.95;6.28;;;;;;;3.38;100.00;98569.06;1691137;83;21064;-64
2022/01/14 10:05:02;;;;;;;18.35;6.20;;;;;;;3.37;100.00;98545.25;1693650;83;21100;-62
2022/01/14 10:07:29;;;;;;;12.60;5.97;;;;;;;3.37;100.00;98540.05;1684996;83;21078;-64
2022/01/14 10:10:01;;;;;;;7.87;3.47;;;;;;;3.37;100.00;98528.34;1683828;83;21393;-63
2022/01/14 10:12:26;;;;;;;6.15;3.50;;;;;;;3.38;100.00;98500.09;1697070;83;21635;-63
2022/01/14 10:15:00;;;;;;;7.95;4.37;;;;;;;3.41;100.00;98497.41;1696182;83;21058;-64
2022/01/14 10:17:41;;;;;;;9.40;3.70;;;;;;;3.42;100.00;98479.58;1680347;83;21078;-64
2022/01/14 10:20:10;;;;;;;7.35;3.47;;;;;;;3.46;100.00;98477.28;1689660;83;21076;-65
2022/01/14 10:22:45;;;;;;;6.12;3.45;;;;;;;3.49;100.00;98473.27;1679940;85;21712;-63
2022/01/14 10:25:18;;;;;;;9.58;3.67;;;;;;;3.52;100.00;98465.37;1680726;83;21138;-63
2022/01/14 10:27:52;;;;;;;13.68;3.35;;;;;;;3.58;100.00;98443.00;1706836;82;21006;-63
2022/01/14 10:30:28;;;;;;;6.95;3.47;;;;;;;3.66;100.00;98444.48;1679765;84;21551;-64
2022/01/14 10:33:08;;;;;;;7.92;4.35;;;;;;;3.74;100.00;98421.63;1683597;84;21125;-63
2022/01/14 10:35:39;;;;;;;6.33;3.30;;;;;;;3.87;100.00;98419.44;1653262;84;21056;-63
2022/01/14 10:38:08;;;;;;;7.05;3.50;;;;;;;3.96;100.00;98409.52;1709067;82;21578;-64
2022/01/14 10:40:38;;;;;;;5.47;3.20;;;;;;;4.15;100.00;98380.16;1676073;84;21131;-64
2022/01/14 10:43:07;;;;;;;5.50;3.02;;;;;;;4.29;100.00;98386.98;1713504;82;21522;-64
2022/01/14 10:45:34;;;;;;;8.83;3.40;;;;;;;4.41;100.00;98382.58;1676220;83;21045;-66
2022/01/14 10:48:05;;;;;;;8.08;3.15;;;;;;;4.46;100.00;98380.24;1675581;84;21085;-65
2022/01/14 10:50:54;;;;;;;5.12;3.12;;;;;;;4.38;100.00;98360.55;1726604;82;21127;-63
2022/01/14 10:53:36;;;;;;;6.53;3.17;;;;;;;4.36;100.00;98350.64;1722941;82;21068;-63
2022/01/14 10:56:12;;;;;;;20.27;7.47;;;;;;;4.29;100.00;98323.59;1737792;82;21692;-64
2022/01/14 10:58:42;;;;;;;12.00;5.62;;;;;;;4.25;100.00;98319.41;1719619;82;21101;-65
2022/01/14 11:01:12;;;;;;;19.35;7.20;;;;;;;4.20;100.00;98303.96;1716819;82;20996;-65
2022/01/14 11:03:46;;;;;;;11.25;6.00;;;;;;;4.17;100.00;98302.80;1688436;84;21337;-63
2022/01/14 11:06:39;;;;;;;16.55;6.95;;;;;;;4.10;100.00;98303.95;1712541;82;21074;-64
2022/01/14 11:09:17;;;;;;;7.92;5.17;;;;;;;4.06;100.00;98293.25;1694023;84;21090;-62
2022/01/14 11:11:49;;;;;;;9.73;3.90;;;;;;;3.98;100.00;98290.50;1669578;85;21034;-64
2022/01/14 11:14:16;;;;;;;14.05;6.83;;;;;;;3.93;100.00;98285.94;1670211;85;21065;-64
2022/01/14 11:16:44;;;;;;;48.02;19.27;;;;;;;3.88;100.00;98272.23;1671536;85;21064;-64
2022/01/14 11:19:13;;;;;;;41.65;15.90;;;;;;;3.88;100.00;98290.45;1711453;83;21006;-66
2022/01/14 11:24:26;;;;;;;144.25;55.92;;;;;;;3.74;100.00;98262.35;1664899;85;22118;-65
2022/01/14 11:27:06;;;;;;;;;;;;;;;3.71;100.00;98259.05;1707548;82;21164;-65
2022/01/14 11:29:35;;;;;;;19.15;8.83;;;;;;;3.69;100.00;98249.14;1713208;82;21103;-66
2022/01/14 11:32:05;;;;;;;14.93;7.65;;;;;;;3.63;100.00;98248.06;1705359;82;21676;-64
2022/01/14 11:34:36;;;;;;;9.65;5.20;;;;;;;3.60;100.00;98242.98;1675007;85;21120;-64
2022/01/14 11:37:13;;;;;;;15.13;6.30;;;;;;;3.57;100.00;98244.80;1721878;82;21076;-65
2022/01/14 11:39:42;;;;;;;19.45;7.83;;;;;;;3.56;100.00;98236.58;1722101;82;21092;-64
2022/01/14 11:42:14;;;;;;;10.32;4.97;;;;;;;3.57;100.00;98228.34;1694264;84;21781;-64
2022/01/14 11:47:38;;;;;;;57.98;23.62;;;;;;;3.50;100.00;98218.63;1736624;82;21064;-63
2022/01/14 11:49:59;;;;;;;109.87;39.00;;;;;;;3.51;100.00;98213.80;1731230;82;21065;-64
2022/01/14 11:52:43;;;;;;;58.48;22.50;;;;;;;3.51;100.00;98196.88;1730458;82;21061;-63
2022/01/14 11:55:30;;;;;;;60.63;22.05;;;;;;;3.51;100.00;98198.18;1726804;82;21124;-63
2022/01/14 11:57:58;;;;;;;11.40;5.78;;;;;;;3.53;100.00;98187.26;1726676;82;21124;-64
2022/01/14 12:00:41;;;;;;;26.20;10.35;;;;;;;3.49;100.00;98181.77;1683640;84;21093;-63
2022/01/14 12:03:26;;;;;;;11.30;5.22;;;;;;;3.51;100.00;98179.13;1709823;82;21010;-62
2022/01/14 12:05:54;;;;;;;69.82;27.30;;;;;;;3.50;100.00;98162.66;1712808;82;21078;-64